createdAt,value
2017-07-08T00:00:04.592Z,0
2017-07-08T00:01:04.081Z,0
2017-07-08T00:02:03.936Z,0
2017-07-08T00:03:03.945Z,0
2017-07-08T00:04:03.926Z,0
2017-07-08T00:05:03.923Z,0
2017-07-08T00:06:03.920Z,0
2017-07-08T00:07:04.590Z,0
2017-07-08T00:08:03.917Z,0
2017-07-08T00:09:04.245Z,0
2017-07-08T00:10:04.582Z,0
2017-07-08T00:11:03.912Z,0
2017-07-08T00:12:04.386Z,0
2017-07-08T00:13:04.247Z,0
2017-07-08T00:14:04.254Z,0
2017-07-08T00:15:03.905Z,0
2017-07-08T00:16:04.235Z,0
2017-07-08T00:17:03.905Z,0
2017-07-08T00:18:04.739Z,0
2017-07-08T00:19:04.237Z,0
2017-07-08T00:20:04.225Z,0
2017-07-08T00:21:04.550Z,0
2017-07-08T00:22:04.218Z,0
2017-07-08T00:23:04.560Z,0
2017-07-08T00:24:04.222Z,0
2017-07-08T00:25:04.228Z,0
2017-07-08T00:26:03.939Z,0
2017-07-08T00:27:04.214Z,0
2017-07-08T00:28:04.555Z,0
2017-07-08T00:29:04.355Z,0
2017-07-08T00:30:04.218Z,0
2017-07-08T00:31:04.204Z,0
2017-07-08T00:32:04.200Z,0
2017-07-08T00:33:04.200Z,0
2017-07-08T00:34:04.194Z,0
2017-07-08T00:35:03.867Z,0
2017-07-08T00:36:03.874Z,0
2017-07-08T00:37:04.522Z,0
2017-07-08T00:38:04.211Z,0
2017-07-08T00:39:03.858Z,0
2017-07-08T00:40:04.697Z,0
2017-07-08T00:41:03.857Z,0
2017-07-08T00:42:03.857Z,0
2017-07-08T00:43:04.543Z,0
2017-07-08T00:44:04.548Z,0
2017-07-08T00:45:04.522Z,0
2017-07-08T00:46:04.505Z,0
2017-07-08T00:47:04.172Z,0
2017-07-08T00:48:03.851Z,0
2017-07-08T00:49:03.857Z,0
2017-07-08T00:50:04.166Z,0
2017-07-08T00:51:04.318Z,0
2017-07-08T00:52:04.165Z,0
2017-07-08T00:53:04.160Z,0
2017-07-08T00:54:03.827Z,0
2017-07-08T00:55:04.158Z,0
2017-07-08T00:56:03.825Z,0
2017-07-08T00:57:04.154Z,0
2017-07-08T00:58:04.155Z,0
2017-07-08T00:59:03.825Z,0
2017-07-08T01:00:04.486Z,0
2017-07-08T01:01:04.166Z,0
2017-07-08T01:02:04.485Z,0
2017-07-08T01:03:04.160Z,0
2017-07-08T01:04:03.810Z,0
2017-07-08T01:05:04.133Z,0
2017-07-08T01:06:04.462Z,0
2017-07-08T01:07:04.289Z,0
2017-07-08T01:08:04.129Z,0
2017-07-08T01:09:04.125Z,0
2017-07-08T01:10:04.142Z,0
2017-07-08T01:11:04.122Z,0
2017-07-08T01:12:04.121Z,0
2017-07-08T01:13:04.443Z,0
2017-07-08T01:14:04.118Z,0
2017-07-08T01:15:04.155Z,0
2017-07-08T01:16:04.459Z,0
2017-07-08T01:17:03.785Z,0
2017-07-08T01:18:04.264Z,0
2017-07-08T01:19:03.780Z,0
2017-07-08T01:20:03.781Z,0
2017-07-08T01:21:03.774Z,0
2017-07-08T01:22:04.099Z,0
2017-07-08T01:23:04.116Z,0
2017-07-08T01:24:04.749Z,0
2017-07-08T01:25:04.092Z,0
2017-07-08T01:26:04.087Z,0
2017-07-08T01:27:03.774Z,0
2017-07-08T01:28:04.108Z,0
2017-07-08T01:29:04.286Z,0
2017-07-08T01:30:04.101Z,0
2017-07-08T01:31:04.080Z,0
2017-07-08T01:32:04.072Z,0
2017-07-08T01:33:03.745Z,0
2017-07-08T01:34:04.396Z,0
2017-07-08T01:35:04.082Z,0
2017-07-08T01:36:04.063Z,0
2017-07-08T01:37:04.091Z,0
2017-07-08T01:38:04.397Z,0
2017-07-08T01:39:04.388Z,0
2017-07-08T01:40:03.885Z,0
2017-07-08T01:41:03.726Z,0
2017-07-08T01:42:04.059Z,0
2017-07-08T01:43:04.051Z,0
2017-07-08T01:44:03.718Z,0
2017-07-08T01:45:04.694Z,0
2017-07-08T01:46:04.405Z,0
2017-07-08T01:47:03.731Z,0
2017-07-08T01:48:04.038Z,0
2017-07-08T01:49:03.706Z,0
2017-07-08T01:50:04.362Z,0
2017-07-08T01:51:04.511Z,0
2017-07-08T01:52:04.028Z,0
2017-07-08T01:53:03.761Z,0
2017-07-08T01:54:04.043Z,0
2017-07-08T01:55:04.353Z,0
2017-07-08T01:56:04.345Z,0
2017-07-08T01:57:04.376Z,0
2017-07-08T01:58:04.338Z,0
2017-07-08T01:59:04.336Z,0
2017-07-08T02:00:04.337Z,0
2017-07-08T02:01:03.675Z,0
2017-07-08T02:02:04.156Z,0
2017-07-08T02:03:03.999Z,0
2017-07-08T02:04:04.059Z,0
2017-07-08T02:05:03.664Z,0
2017-07-08T02:06:03.663Z,0
2017-07-08T02:07:03.667Z,0
2017-07-08T02:08:03.984Z,0
2017-07-08T02:09:03.655Z,0
2017-07-08T02:10:04.645Z,0
2017-07-08T02:11:03.647Z,0
2017-07-08T02:12:03.646Z,0
2017-07-08T02:13:03.795Z,0
2017-07-08T02:14:03.660Z,0
2017-07-08T02:15:04.293Z,0
2017-07-08T02:16:03.638Z,0
2017-07-08T02:17:03.633Z,0
2017-07-08T02:18:03.972Z,0
2017-07-08T02:19:04.289Z,0
2017-07-08T02:20:03.966Z,0
2017-07-08T02:21:03.953Z,0
2017-07-08T02:22:03.965Z,0
2017-07-08T02:23:04.274Z,0
2017-07-08T02:24:04.095Z,0
2017-07-08T02:25:04.273Z,0
2017-07-08T02:26:03.620Z,0
2017-07-08T02:27:03.939Z,0
2017-07-08T02:28:03.606Z,0
2017-07-08T02:29:03.605Z,0
2017-07-08T02:30:04.037Z,0
2017-07-08T02:31:04.257Z,4
2017-07-08T02:32:03.926Z,4
2017-07-08T02:33:03.597Z,4
2017-07-08T02:34:03.604Z,0
2017-07-08T02:35:04.088Z,4
2017-07-08T02:36:03.935Z,4
2017-07-08T02:37:03.585Z,8
2017-07-08T02:38:03.911Z,4
2017-07-08T02:39:03.906Z,8
2017-07-08T02:40:03.577Z,8
2017-07-08T02:41:03.961Z,8
2017-07-08T02:42:03.580Z,8
2017-07-08T02:43:03.904Z,8
2017-07-08T02:44:03.919Z,12
2017-07-08T02:45:03.905Z,16
2017-07-08T02:46:03.892Z,20
2017-07-08T02:47:03.587Z,20
2017-07-08T02:48:04.225Z,20
2017-07-08T02:49:03.558Z,28
2017-07-08T02:50:03.894Z,28
2017-07-08T02:51:03.918Z,32
2017-07-08T02:52:04.029Z,40
2017-07-08T02:53:03.877Z,44
2017-07-08T02:54:04.223Z,48
2017-07-08T02:55:03.871Z,52
2017-07-08T02:56:03.538Z,60
2017-07-08T02:57:03.538Z,64
2017-07-08T02:58:03.535Z,72
2017-07-08T02:59:03.881Z,76
2017-07-08T03:00:04.185Z,84
2017-07-08T03:01:03.535Z,92
2017-07-08T03:02:03.868Z,100
2017-07-08T03:03:03.853Z,112
2017-07-08T03:04:03.852Z,124
2017-07-08T03:05:04.177Z,136
2017-07-08T03:06:03.847Z,156
2017-07-08T03:07:04.176Z,172
2017-07-08T03:08:03.992Z,188
2017-07-08T03:09:03.536Z,200
2017-07-08T03:10:03.539Z,208
2017-07-08T03:11:03.547Z,224
2017-07-08T03:12:04.180Z,232
2017-07-08T03:13:03.498Z,244
2017-07-08T03:14:03.923Z,256
2017-07-08T03:15:03.493Z,276
2017-07-08T03:16:03.834Z,296
2017-07-08T03:17:03.529Z,316
2017-07-08T03:18:03.868Z,336
2017-07-08T03:19:03.811Z,360
2017-07-08T03:20:03.809Z,396
2017-07-08T03:21:03.835Z,436
2017-07-08T03:22:04.462Z,480
2017-07-08T03:23:03.470Z,496
2017-07-08T03:24:03.490Z,496
2017-07-08T03:25:03.944Z,488
2017-07-08T03:26:03.489Z,484
2017-07-08T03:27:04.120Z,488
2017-07-08T03:28:03.458Z,512
2017-07-08T03:29:04.140Z,524
2017-07-08T03:30:03.786Z,532
2017-07-08T03:31:03.452Z,540
2017-07-08T03:32:03.779Z,540
2017-07-08T03:33:03.776Z,568
2017-07-08T03:34:04.137Z,624
2017-07-08T03:35:03.459Z,668
2017-07-08T03:36:03.924Z,704
2017-07-08T03:37:04.429Z,736
2017-07-08T03:38:04.096Z,748
2017-07-08T03:39:03.450Z,768
2017-07-08T03:40:04.415Z,824
2017-07-08T03:41:03.427Z,852
2017-07-08T03:42:03.754Z,848
2017-07-08T03:43:04.090Z,884
2017-07-08T03:44:04.080Z,1008
2017-07-08T03:45:03.745Z,1132
2017-07-08T03:46:03.416Z,1156
2017-07-08T03:47:03.430Z,1144
2017-07-08T03:48:03.744Z,1116
2017-07-08T03:49:03.755Z,1156
2017-07-08T03:50:03.408Z,1192
2017-07-08T03:51:03.408Z,1152
2017-07-08T03:52:03.877Z,1132
2017-07-08T03:53:04.056Z,1152
2017-07-08T03:54:03.417Z,1204
2017-07-08T03:55:03.741Z,1272
2017-07-08T03:56:03.733Z,1360
2017-07-08T03:57:03.394Z,1456
2017-07-08T03:58:03.733Z,1516
2017-07-08T03:59:04.050Z,1532
2017-07-08T04:00:03.388Z,1528
2017-07-08T04:01:04.040Z,1548
2017-07-08T04:02:03.386Z,1552
2017-07-08T04:03:04.193Z,1596
2017-07-08T04:04:04.067Z,1668
2017-07-08T04:05:04.038Z,1688
2017-07-08T04:06:03.718Z,1672
2017-07-08T04:07:04.380Z,1708
2017-07-08T04:08:03.726Z,1776
2017-07-08T04:09:04.024Z,1780
2017-07-08T04:10:04.353Z,1708
2017-07-08T04:11:04.017Z,1676
2017-07-08T04:12:03.714Z,1676
2017-07-08T04:13:03.354Z,1736
2017-07-08T04:14:03.688Z,1812
2017-07-08T04:15:03.710Z,1852
2017-07-08T04:16:03.682Z,1808
2017-07-08T04:17:03.733Z,1772
2017-07-08T04:18:03.350Z,1744
2017-07-08T04:19:03.674Z,1768
2017-07-08T04:20:03.846Z,1832
2017-07-08T04:21:04.000Z,1936
2017-07-08T04:22:03.361Z,2056
2017-07-08T04:23:03.339Z,2060
2017-07-08T04:24:03.994Z,2008
2017-07-08T04:25:03.335Z,2004
2017-07-08T04:26:04.007Z,2016
2017-07-08T04:27:03.995Z,2116
2017-07-08T04:28:03.661Z,2252
2017-07-08T04:29:03.989Z,2404
2017-07-08T04:30:03.667Z,2728
2017-07-08T04:31:03.350Z,2940
2017-07-08T04:32:03.991Z,2984
2017-07-08T04:33:04.003Z,3024
2017-07-08T04:34:03.998Z,3072
2017-07-08T04:35:03.655Z,3156
2017-07-08T04:36:03.318Z,3116
2017-07-08T04:37:03.647Z,3112
2017-07-08T04:38:03.315Z,3032
2017-07-08T04:39:03.642Z,3020
2017-07-08T04:40:03.983Z,3328
2017-07-08T04:41:03.322Z,3784
2017-07-08T04:42:03.790Z,4040
2017-07-08T04:43:04.290Z,4292
2017-07-08T04:44:03.953Z,4464
2017-07-08T04:45:03.302Z,4392
2017-07-08T04:46:04.291Z,4032
2017-07-08T04:47:03.638Z,4232
2017-07-08T04:48:03.297Z,4784
2017-07-08T04:49:03.628Z,4620
2017-07-08T04:50:03.297Z,4152
2017-07-08T04:51:03.295Z,4088
2017-07-08T04:52:03.296Z,3528
2017-07-08T04:53:04.078Z,3504
2017-07-08T04:54:03.289Z,4460
2017-07-08T04:55:03.289Z,5224
2017-07-08T04:56:03.623Z,5372
2017-07-08T04:57:03.628Z,5304
2017-07-08T04:58:03.322Z,5348
2017-07-08T04:59:03.616Z,5388
2017-07-08T05:00:03.281Z,5656
2017-07-08T05:01:03.613Z,6288
2017-07-08T05:02:03.946Z,7064
2017-07-08T05:03:03.292Z,7740
2017-07-08T05:04:03.931Z,7960
2017-07-08T05:05:03.930Z,7832
2017-07-08T05:06:03.966Z,8376
2017-07-08T05:07:04.255Z,7824
2017-07-08T05:08:03.599Z,6580
2017-07-08T05:09:03.421Z,5284
2017-07-08T05:10:03.651Z,4032
2017-07-08T05:11:03.291Z,3704
2017-07-08T05:12:03.606Z,4372
2017-07-08T05:13:03.922Z,4796
2017-07-08T05:14:03.599Z,5216
2017-07-08T05:15:03.593Z,5320
2017-07-08T05:16:03.283Z,5200
2017-07-08T05:17:03.285Z,5120
2017-07-08T05:18:03.274Z,5124
2017-07-08T05:19:03.589Z,5176
2017-07-08T05:20:03.589Z,5212
2017-07-08T05:21:03.917Z,5352
2017-07-08T05:22:03.257Z,5488
2017-07-08T05:23:03.913Z,5720
2017-07-08T05:24:03.583Z,5684
2017-07-08T05:25:03.586Z,5812
2017-07-08T05:26:03.911Z,5884
2017-07-08T05:27:03.592Z,5940
2017-07-08T05:28:03.598Z,5996
2017-07-08T05:29:03.579Z,6124
2017-07-08T05:30:03.601Z,6280
2017-07-08T05:31:04.385Z,6284
2017-07-08T05:32:03.249Z,6396
2017-07-08T05:33:03.247Z,6656
2017-07-08T05:34:04.233Z,6516
2017-07-08T05:35:03.245Z,6332
2017-07-08T05:36:04.228Z,6260
2017-07-08T05:37:03.575Z,6628
2017-07-08T05:38:03.251Z,7176
2017-07-08T05:39:03.595Z,6656
2017-07-08T05:40:03.263Z,6988
2017-07-08T05:41:03.580Z,7152
2017-07-08T05:42:03.241Z,6724
2017-07-08T05:43:03.241Z,6224
2017-07-08T05:44:03.568Z,6512
2017-07-08T05:45:03.917Z,7592
2017-07-08T05:46:03.255Z,8084
2017-07-08T05:47:03.908Z,6376
2017-07-08T05:48:03.588Z,6464
2017-07-08T05:49:03.566Z,7120
2017-07-08T05:50:03.893Z,6128
2017-07-08T05:51:03.589Z,6256
2017-07-08T05:52:03.792Z,6508
2017-07-08T05:53:03.579Z,6568
2017-07-08T05:54:03.242Z,6564
2017-07-08T05:55:03.567Z,6736
2017-07-08T05:56:03.585Z,6996
2017-07-08T05:57:03.567Z,7156
2017-07-08T05:58:03.235Z,7212
2017-07-08T05:59:03.571Z,7080
2017-07-08T06:00:03.237Z,6996
2017-07-08T06:01:03.565Z,6964
2017-07-08T06:02:03.562Z,6992
2017-07-08T06:03:03.914Z,6912
2017-07-08T06:04:03.892Z,6776
2017-07-08T06:05:03.576Z,6704
2017-07-08T06:06:03.232Z,6696
2017-07-08T06:07:03.587Z,6660
2017-07-08T06:08:03.233Z,6404
2017-07-08T06:09:03.903Z,7048
2017-07-08T06:10:03.576Z,7260
2017-07-08T06:11:03.944Z,7656
2017-07-08T06:12:03.928Z,7408
2017-07-08T06:13:03.234Z,7580
2017-07-08T06:14:03.259Z,7504
2017-07-08T06:15:03.232Z,7780
2017-07-08T06:16:03.266Z,7496
2017-07-08T06:17:03.600Z,6940
2017-07-08T06:18:03.601Z,7672
2017-07-08T06:19:03.240Z,7584
2017-07-08T06:20:03.573Z,7580
2017-07-08T06:21:03.230Z,6504
2017-07-08T06:22:03.239Z,7196
2017-07-08T06:23:03.234Z,8144
2017-07-08T06:24:03.235Z,7748
2017-07-08T06:25:03.234Z,7464
2017-07-08T06:26:03.891Z,7312
2017-07-08T06:27:03.583Z,7116
2017-07-08T06:28:03.561Z,6972
2017-07-08T06:29:03.933Z,7084
2017-07-08T06:30:03.251Z,7660
2017-07-08T06:31:03.562Z,7156
2017-07-08T06:32:03.611Z,8156
2017-07-08T06:33:03.898Z,8208
2017-07-08T06:34:03.617Z,8300
2017-07-08T06:35:03.236Z,8416
2017-07-08T06:36:03.602Z,7924
2017-07-08T06:37:03.949Z,7532
2017-07-08T06:38:03.571Z,8464
2017-07-08T06:39:03.245Z,9296
2017-07-08T06:40:03.565Z,10224
2017-07-08T06:41:03.241Z,12032
2017-07-08T06:42:03.591Z,15652
2017-07-08T06:43:03.588Z,19072
2017-07-08T06:44:03.240Z,27488
2017-07-08T06:45:03.590Z,28992
2017-07-08T06:46:03.566Z,41824
2017-07-08T06:47:03.590Z,30560
2017-07-08T06:48:03.240Z,31520
2017-07-08T06:49:03.241Z,35936
2017-07-08T06:50:03.918Z,36448
2017-07-08T06:51:03.579Z,35264
2017-07-08T06:52:03.246Z,31072
2017-07-08T06:53:03.246Z,29312
2017-07-08T06:54:03.574Z,27072
2017-07-08T06:55:03.251Z,28480
2017-07-08T06:56:03.581Z,30944
2017-07-08T06:57:03.585Z,35872
2017-07-08T06:58:03.916Z,42368
2017-07-08T06:59:03.589Z,45184
2017-07-08T07:00:03.924Z,46016
2017-07-08T07:01:03.602Z,46528
2017-07-08T07:02:03.272Z,48608
2017-07-08T07:03:03.620Z,48768
2017-07-08T07:04:03.612Z,46176
2017-07-08T07:05:03.621Z,41952
2017-07-08T07:06:03.293Z,46656
2017-07-08T07:07:03.624Z,48608
2017-07-08T07:08:03.647Z,49536
2017-07-08T07:09:03.960Z,47968
2017-07-08T07:10:03.638Z,47680
2017-07-08T07:11:03.337Z,46688
2017-07-08T07:12:03.669Z,48160
2017-07-08T07:13:03.664Z,47168
2017-07-08T07:14:03.657Z,49792
2017-07-08T07:15:03.339Z,49504
2017-07-08T07:16:03.344Z,50080
2017-07-08T07:17:03.677Z,50656
2017-07-08T07:18:03.357Z,53728
2017-07-08T07:19:04.375Z,54944
2017-07-08T07:20:03.695Z,54496
2017-07-08T07:21:03.707Z,40640
2017-07-08T07:22:03.716Z,33088
2017-07-08T07:23:03.715Z,27584
2017-07-08T07:24:03.726Z,28032
2017-07-08T07:25:03.760Z,25440
2017-07-08T07:26:03.760Z,26464
2017-07-08T07:27:03.765Z,37984
2017-07-08T07:28:03.773Z,30368
2017-07-08T07:29:03.761Z,54592
2017-07-08T07:30:04.098Z,57536
2017-07-08T07:31:04.139Z,60384
2017-07-08T07:32:03.470Z,55392
2017-07-08T07:33:03.802Z,42304
2017-07-08T07:34:04.160Z,54496
2017-07-08T07:35:03.841Z,36448
2017-07-08T07:36:03.821Z,25472
2017-07-08T07:37:03.499Z,25472
2017-07-08T07:38:10.187Z,21088
2017-07-08T07:39:03.835Z,22624
2017-07-08T07:40:04.174Z,34176
2017-07-08T07:41:03.845Z,21056
2017-07-08T07:42:03.847Z,19200
2017-07-08T07:43:03.528Z,18112
2017-07-08T07:44:03.881Z,17632
2017-07-08T07:45:04.234Z,17408
2017-07-08T07:46:03.893Z,17216
2017-07-08T07:47:03.559Z,17056
2017-07-08T07:48:03.560Z,16232
2017-07-08T07:49:03.567Z,16156
2017-07-08T07:50:04.600Z,15036
2017-07-08T07:51:04.236Z,14956
2017-07-08T07:52:03.589Z,15688
2017-07-08T07:53:03.912Z,16640
2017-07-08T07:54:03.981Z,16704
2017-07-08T07:55:03.935Z,16296
2017-07-08T07:56:03.947Z,15640
2017-07-08T07:57:04.274Z,15088
2017-07-08T07:58:03.964Z,14588
2017-07-08T07:59:03.962Z,14356
2017-07-08T08:00:03.967Z,14208
2017-07-08T08:01:04.279Z,14192
2017-07-08T08:02:03.954Z,14184
2017-07-08T08:03:03.959Z,14328
2017-07-08T08:04:03.636Z,14304
2017-07-08T08:05:03.984Z,14380
2017-07-08T08:06:04.295Z,15376
2017-07-08T08:07:03.647Z,17248
2017-07-08T08:08:03.648Z,19136
2017-07-08T08:09:03.655Z,18304
2017-07-08T08:10:04.326Z,19104
2017-07-08T08:11:04.322Z,16244
2017-07-08T08:12:04.673Z,14708
2017-07-08T08:13:04.000Z,13860
2017-07-08T08:14:03.997Z,14088
2017-07-08T08:15:04.003Z,14036
2017-07-08T08:16:04.033Z,15820
2017-07-08T08:17:04.021Z,19072
2017-07-08T08:18:03.698Z,18592
2017-07-08T08:19:04.343Z,19168
2017-07-08T08:20:04.066Z,20256
2017-07-08T08:21:04.365Z,19424
2017-07-08T08:22:04.359Z,20128
2017-07-08T08:23:04.033Z,20288
2017-07-08T08:24:04.061Z,20416
2017-07-08T08:25:04.067Z,20416
2017-07-08T08:26:03.722Z,19968
2017-07-08T08:27:04.067Z,20032
2017-07-08T08:28:03.731Z,19360
2017-07-08T08:29:04.399Z,20192
2017-07-08T08:30:03.739Z,20480
2017-07-08T08:31:04.082Z,18464
2017-07-08T08:32:04.075Z,17216
2017-07-08T08:33:03.758Z,16768
2017-07-08T08:34:04.111Z,16280
2017-07-08T08:35:04.096Z,16492
2017-07-08T08:36:04.096Z,17120
2017-07-08T08:37:04.124Z,15520
2017-07-08T08:38:04.434Z,15592
2017-07-08T08:39:03.796Z,17600
2017-07-08T08:40:04.126Z,19424
2017-07-08T08:41:04.115Z,20256
2017-07-08T08:42:04.461Z,19552
2017-07-08T08:43:03.816Z,19776
2017-07-08T08:44:04.460Z,19456
2017-07-08T08:45:04.133Z,19424
2017-07-08T08:46:04.136Z,19616
2017-07-08T08:47:03.824Z,20256
2017-07-08T08:48:04.827Z,19552
2017-07-08T08:49:04.486Z,17344
2017-07-08T08:50:04.169Z,14096
2017-07-08T08:51:03.830Z,11516
2017-07-08T08:52:04.160Z,9712
2017-07-08T08:53:03.839Z,8704
2017-07-08T08:54:04.496Z,9908
2017-07-08T08:55:03.872Z,12900
2017-07-08T08:56:03.940Z,16800
2017-07-08T08:57:03.861Z,17984
2017-07-08T08:58:04.216Z,16960
2017-07-08T08:59:04.194Z,15848
2017-07-08T09:00:04.204Z,14992
2017-07-08T09:01:03.877Z,14032
2017-07-08T09:02:04.207Z,12836
2017-07-08T09:03:04.539Z,11976
2017-07-08T09:04:04.543Z,12460
2017-07-08T09:05:04.218Z,14428
2017-07-08T09:06:04.225Z,15768
2017-07-08T09:07:03.901Z,14348
2017-07-08T09:08:04.566Z,14840
2017-07-08T09:09:03.924Z,17120
2017-07-08T09:10:04.236Z,19072
2017-07-08T09:11:03.916Z,19104
2017-07-08T09:12:04.271Z,19648
2017-07-08T09:13:04.254Z,18624
2017-07-08T09:14:04.257Z,16088
2017-07-08T09:15:04.280Z,17004
2017-07-08T09:16:04.283Z,18368
2017-07-08T09:17:04.277Z,19904
2017-07-08T09:18:03.959Z,20480
2017-07-08T09:19:03.964Z,20000
2017-07-08T09:20:04.288Z,19264
2017-07-08T09:21:04.300Z,17792
2017-07-08T09:22:04.287Z,15924
2017-07-08T09:23:04.294Z,14648
2017-07-08T09:24:04.296Z,16308
2017-07-08T09:25:04.307Z,17088
2017-07-08T09:26:04.316Z,17152
2017-07-08T09:27:03.978Z,18048
2017-07-08T09:28:04.312Z,19552
2017-07-08T09:29:04.323Z,20320
2017-07-08T09:30:04.320Z,19072
2017-07-08T09:31:04.345Z,17312
2017-07-08T09:32:04.672Z,15680
2017-07-08T09:33:04.993Z,16268
2017-07-08T09:34:04.336Z,18656
2017-07-08T09:35:04.355Z,18528
2017-07-08T09:36:04.017Z,18048
2017-07-08T09:37:04.042Z,16248
2017-07-08T09:38:04.352Z,13292
2017-07-08T09:39:04.026Z,11516
2017-07-08T09:40:04.359Z,12148
2017-07-08T09:41:04.361Z,12216
2017-07-08T09:42:04.692Z,13960
2017-07-08T09:43:04.698Z,18112
2017-07-08T09:44:04.392Z,19968
2017-07-08T09:45:04.069Z,19904
2017-07-08T09:46:04.401Z,15288
2017-07-08T09:47:04.383Z,11352
2017-07-08T09:48:04.726Z,9776
2017-07-08T09:49:04.392Z,9332
2017-07-08T09:50:04.428Z,10536
2017-07-08T09:51:04.409Z,12248
2017-07-08T09:52:04.080Z,13036
2017-07-08T09:53:04.409Z,15244
2017-07-08T09:54:04.418Z,15448
2017-07-08T09:55:04.418Z,13096
2017-07-08T09:56:04.415Z,12492
2017-07-08T09:57:04.421Z,13368
2017-07-08T09:58:04.426Z,14616
2017-07-08T09:59:04.759Z,16316
2017-07-08T10:00:04.125Z,16928
2017-07-08T10:01:04.458Z,15708
2017-07-08T10:02:04.457Z,12984
2017-07-08T10:03:04.444Z,9488
2017-07-08T10:04:04.464Z,7900
2017-07-08T10:05:04.773Z,9216
2017-07-08T10:06:04.458Z,12292
2017-07-08T10:07:04.128Z,16768
2017-07-08T10:08:04.141Z,18240
2017-07-08T10:09:05.130Z,17024
2017-07-08T10:10:04.480Z,16304
2017-07-08T10:11:04.822Z,15380
2017-07-08T10:12:04.804Z,14996
2017-07-08T10:13:04.162Z,15204
2017-07-08T10:14:04.154Z,15476
2017-07-08T10:15:04.489Z,16236
2017-07-08T10:16:04.177Z,16960
2017-07-08T10:17:04.503Z,17856
2017-07-08T10:18:04.498Z,17952
2017-07-08T10:19:04.175Z,17088
2017-07-08T10:20:04.852Z,16168
2017-07-08T10:21:04.510Z,16716
2017-07-08T10:22:04.182Z,16536
2017-07-08T10:23:04.521Z,16136
2017-07-08T10:24:04.225Z,15892
2017-07-08T10:25:04.525Z,15856
2017-07-08T10:26:04.213Z,16800
2017-07-08T10:27:04.864Z,16576
2017-07-08T10:28:04.554Z,18080
2017-07-08T10:29:04.547Z,18944
2017-07-08T10:30:05.203Z,17344
2017-07-08T10:31:04.882Z,14964
2017-07-08T10:32:04.228Z,12028
2017-07-08T10:33:04.888Z,9444
2017-07-08T10:34:04.891Z,6924
2017-07-08T10:35:04.565Z,6536
2017-07-08T10:36:04.589Z,6944
2017-07-08T10:37:04.909Z,6500
2017-07-08T10:38:04.919Z,5260
2017-07-08T10:39:04.592Z,3800
2017-07-08T10:40:04.598Z,2764
2017-07-08T10:41:04.603Z,2416
2017-07-08T10:42:04.269Z,2452
2017-07-08T10:43:04.929Z,2816
2017-07-08T10:44:04.931Z,3968
2017-07-08T10:45:04.965Z,5872
2017-07-08T10:46:04.295Z,8020
2017-07-08T10:47:04.309Z,8640
2017-07-08T10:48:04.637Z,8416
2017-07-08T10:49:04.320Z,7936
2017-07-08T10:50:04.654Z,7308
2017-07-08T10:51:04.959Z,6460
2017-07-08T10:52:04.970Z,5544
2017-07-08T10:53:04.649Z,4488
2017-07-08T10:54:04.972Z,3556
2017-07-08T10:55:04.661Z,2936
2017-07-08T10:56:04.325Z,2588
2017-07-08T10:57:04.330Z,2608
2017-07-08T10:58:04.683Z,3216
2017-07-08T10:59:04.340Z,4072
2017-07-08T11:00:04.991Z,5656
2017-07-08T11:01:04.333Z,8048
2017-07-08T11:02:04.992Z,12044
2017-07-08T11:03:04.670Z,16512
2017-07-08T11:04:04.666Z,18592
2017-07-08T11:05:04.342Z,19072
2017-07-08T11:06:04.343Z,19456
2017-07-08T11:07:05.016Z,18624
2017-07-08T11:08:04.674Z,16992
2017-07-08T11:09:04.345Z,16024
2017-07-08T11:10:04.353Z,15424
2017-07-08T11:11:04.715Z,15420
2017-07-08T11:12:04.371Z,15252
2017-07-08T11:13:04.352Z,14856
2017-07-08T11:14:05.343Z,13680
2017-07-08T11:15:04.690Z,12912
2017-07-08T11:16:05.038Z,11648
2017-07-08T11:17:04.688Z,10320
2017-07-08T11:18:04.692Z,8856
2017-07-08T11:19:05.029Z,7468
2017-07-08T11:20:04.692Z,7340
2017-07-08T11:21:04.368Z,8488
2017-07-08T11:22:04.370Z,10044
2017-07-08T11:23:04.370Z,10908
2017-07-08T11:24:04.386Z,10684
2017-07-08T11:25:04.372Z,10644
2017-07-08T11:26:04.378Z,10904
2017-07-08T11:27:04.378Z,10416
2017-07-08T11:28:04.384Z,9884
2017-07-08T11:29:04.379Z,9604
2017-07-08T11:30:05.034Z,9720
2017-07-08T11:31:05.042Z,10084
2017-07-08T11:32:05.409Z,11024
2017-07-08T11:33:04.715Z,12480
2017-07-08T11:34:05.065Z,14244
2017-07-08T11:35:05.063Z,14672
2017-07-08T11:36:04.751Z,15072
2017-07-08T11:37:04.401Z,15304
2017-07-08T11:38:04.728Z,15148
2017-07-08T11:39:04.731Z,14836
2017-07-08T11:40:05.061Z,14160
2017-07-08T11:41:05.059Z,13652
2017-07-08T11:42:04.793Z,13340
2017-07-08T11:43:04.750Z,12524
2017-07-08T11:44:04.742Z,12100
2017-07-08T11:45:04.740Z,12168
2017-07-08T11:46:05.088Z,13520
2017-07-08T11:47:04.748Z,14648
2017-07-08T11:48:05.088Z,15208
2017-07-08T11:49:05.101Z,15132
2017-07-08T11:50:05.088Z,14964
2017-07-08T11:51:04.798Z,15340
2017-07-08T11:52:04.436Z,15716
2017-07-08T11:53:04.766Z,16204
2017-07-08T11:54:04.787Z,15936
2017-07-08T11:55:04.473Z,16504
2017-07-08T11:56:04.453Z,16116
2017-07-08T11:57:04.787Z,16308
2017-07-08T11:58:04.466Z,15788
2017-07-08T11:59:04.456Z,15300
2017-07-08T12:00:04.789Z,13812
2017-07-08T12:01:04.791Z,12656
2017-07-08T12:02:04.469Z,12268
2017-07-08T12:03:04.817Z,11520
2017-07-08T12:04:04.802Z,11000
2017-07-08T12:05:04.825Z,10636
2017-07-08T12:06:04.830Z,11036
2017-07-08T12:07:05.153Z,10940
2017-07-08T12:08:04.488Z,9672
2017-07-08T12:09:05.174Z,8560
2017-07-08T12:10:04.823Z,7008
2017-07-08T12:11:04.519Z,6108
2017-07-08T12:12:04.518Z,5220
2017-07-08T12:13:04.873Z,4788
2017-07-08T12:14:04.513Z,4992
2017-07-08T12:15:04.853Z,6168
2017-07-08T12:16:05.174Z,8548
2017-07-08T12:17:05.179Z,11556
2017-07-08T12:18:04.528Z,11044
2017-07-08T12:19:05.182Z,10312
2017-07-08T12:20:04.874Z,9764
2017-07-08T12:21:04.889Z,9476
2017-07-08T12:22:05.195Z,9316
2017-07-08T12:23:04.894Z,8568
2017-07-08T12:24:04.881Z,8348
2017-07-08T12:25:04.550Z,9440
2017-07-08T12:26:04.880Z,9260
2017-07-08T12:27:04.568Z,9012
2017-07-08T12:28:04.561Z,8560
2017-07-08T12:29:04.893Z,8028
2017-07-08T12:30:05.225Z,7484
2017-07-08T12:31:04.905Z,7456
2017-07-08T12:32:04.575Z,7432
2017-07-08T12:33:05.575Z,7032
2017-07-08T12:34:04.920Z,6812
2017-07-08T12:35:04.910Z,6636
2017-07-08T12:36:05.287Z,6320
2017-07-08T12:37:04.933Z,6292
2017-07-08T12:38:05.253Z,6312
2017-07-08T12:39:04.924Z,6468
2017-07-08T12:40:04.929Z,6636
2017-07-08T12:41:04.954Z,6564
2017-07-08T12:42:04.938Z,6272
2017-07-08T12:43:04.621Z,7384
2017-07-08T12:44:04.618Z,9456
2017-07-08T12:45:04.631Z,10624
2017-07-08T12:46:04.622Z,10384
2017-07-08T12:47:05.286Z,9332
2017-07-08T12:48:05.289Z,9096
2017-07-08T12:49:04.962Z,7684
2017-07-08T12:50:05.627Z,6572
2017-07-08T12:51:04.639Z,7300
2017-07-08T12:52:04.972Z,7804
2017-07-08T12:53:04.983Z,7832
2017-07-08T12:54:04.650Z,9468
2017-07-08T12:55:05.310Z,11812
2017-07-08T12:56:05.317Z,11820
2017-07-08T12:57:04.994Z,11152
2017-07-08T12:58:05.326Z,10288
2017-07-08T12:59:04.671Z,10236
2017-07-08T13:00:04.672Z,8432
2017-07-08T13:01:05.678Z,6880
2017-07-08T13:02:05.027Z,7096
2017-07-08T13:03:05.012Z,7788
2017-07-08T13:04:04.691Z,8104
2017-07-08T13:05:05.021Z,8016
2017-07-08T13:06:05.355Z,7032
2017-07-08T13:07:05.043Z,6996
2017-07-08T13:08:05.029Z,7436
2017-07-08T13:09:04.721Z,8320
2017-07-08T13:10:05.379Z,9696
2017-07-08T13:11:04.712Z,10984
2017-07-08T13:12:04.719Z,11872
2017-07-08T13:13:04.721Z,12020
2017-07-08T13:14:05.054Z,12556
2017-07-08T13:15:05.052Z,12760
2017-07-08T13:16:04.730Z,12184
2017-07-08T13:17:05.075Z,11404
2017-07-08T13:18:05.409Z,11848
2017-07-08T13:19:05.068Z,11908
2017-07-08T13:20:05.078Z,11320
2017-07-08T13:21:05.403Z,11084
2017-07-08T13:22:04.754Z,11092
2017-07-08T13:23:05.086Z,10900
2017-07-08T13:24:05.088Z,11172
2017-07-08T13:25:05.095Z,12176
2017-07-08T13:26:05.097Z,12220
2017-07-08T13:27:05.111Z,10696